Terminal Aerodrome Forecast
Issued by NWS Shreveport, LA

Home | Current Version | Previous Version | Text Only | Print | Product List | Glossary On
Versions: 1 2 3 4 5 6 7 8 9 10 11 12 13 14
997
FTUS44 KSHV 172000 AAA
TAFELD
TAF AMD
KELD 172000Z 1720/1818 VRB03KT P6SM OVC004
      TEMPO 1720/1721 6SM BR
     FM180200 00000KT 6SM BR OVC004
     FM180600 00000KT 1/2SM FG OVC002
     FM181500 VRB03KT 2SM BR VCSH OVC003=

USA.gov is the U.S. government's official web portal to all federal, state and local government web resources and services.